Time;durP1;ratioP1;P1;durP2;ratioP2;P2;SDS_P1;SDS_P2;PMS_P1;PMS_P2;Temp;Humidity;BMP_temperature;BMP_pressure;BME280_temperature;BME280_humidity;BME280_pressure;Samples;Min_cycle;Max_cycle;Signal;HPM_P1;HPM_P2
2023/04/23 00:01:25;;;;;;;;;;;12.80;99.90;;;;;;5086226;28;19924;-64
2023/04/23 00:03:58;;;;;;;;;;;12.80;99.90;;;;;;5066168;28;19998;-64
2023/04/23 00:06:29;;;;;;;;;;;12.80;99.90;;;;;;5085022;28;19924;-64
2023/04/23 00:09:00;;;;;;;;;;;12.70;99.90;;;;;;5083215;28;19955;-64
2023/04/23 00:11:32;;;;;;;;;;;12.70;99.90;;;;;;5081460;28;19970;-64
2023/04/23 00:13:59;;;;;;;;;;;12.70;99.90;;;;;;5076929;28;20464;-64
2023/04/23 00:16:31;;;;;;;;;;;12.70;99.90;;;;;;5048549;28;19936;-64
2023/04/23 00:19:02;;;;;;;;;;;12.60;99.90;;;;;;5076999;28;19925;-64
2023/04/23 00:21:34;;;;;;;;;;;12.70;99.90;;;;;;5082293;28;20305;-64
2023/04/23 00:24:06;;;;;;;;;;;12.60;99.90;;;;;;5082093;28;19925;-64
2023/04/23 00:26:37;;;;;;;;;;;12.60;99.90;;;;;;5085826;28;19924;-64
2023/04/23 00:29:09;;;;;;;;;;;12.60;99.90;;;;;;5067845;28;19929;-64
2023/04/23 00:31:41;;;;;;;;;;;12.50;99.90;;;;;;5052708;28;19924;-64
2023/04/23 00:34:12;;;;;;;;;;;12.50;99.90;;;;;;5061931;28;20274;-64
2023/04/23 00:36:44;;;;;;;;;;;12.40;99.90;;;;;;5077466;28;19928;-64
2023/04/23 00:39:16;;;;;;;;;;;12.40;99.90;;;;;;5051818;28;20359;-64
2023/04/23 00:41:44;;;;;;;;;;;12.40;99.90;;;;;;5079830;28;19928;-64
2023/04/23 00:44:16;;;;;;;;;;;12.40;99.90;;;;;;5062068;28;19935;-64
2023/04/23 00:46:48;;;;;;;;;;;12.40;99.90;;;;;;5063418;28;19928;-64
2023/04/23 00:49:20;;;;;;;;;;;12.40;99.90;;;;;;5065272;28;19928;-64
2023/04/23 00:51:47;;;;;;;;;;;12.40;99.90;;;;;;5067546;28;20406;-64
2023/04/23 00:54:19;;;;;;;;;;;12.50;99.90;;;;;;5082177;28;19924;-64
2023/04/23 00:56:50;;;;;;;;;;;12.50;99.90;;;;;;5080247;28;19932;-64
2023/04/23 00:59:25;;;;;;;;;;;12.50;99.90;;;;;;5059698;28;19978;-64
2023/04/23 01:01:57;;;;;;;;;;;12.50;99.90;;;;;;5056515;28;19974;-64
2023/04/23 01:04:30;;;;;;;;;;;12.50;99.90;;;;;;5041012;28;20373;-64
2023/04/23 01:07:02;;;;;;;;;;;12.50;99.90;;;;;;5076009;28;19928;-64
2023/04/23 01:09:33;;;;;;;;;;;12.50;99.90;;;;;;5079864;28;19924;-64
2023/04/23 01:12:01;;;;;;;;;;;12.50;99.90;;;;;;5064741;28;19959;-64
2023/04/23 01:14:28;;;;;;;;;;;12.50;99.90;;;;;;5067259;28;19947;-64
2023/04/23 01:17:00;;;;;;;;;;;12.40;99.90;;;;;;5064784;28;19924;-64
2023/04/23 01:19:32;;;;;;;;;;;12.40;99.90;;;;;;5071551;28;19924;-64
2023/04/23 01:22:08;;;;;;;;;;;12.40;99.90;;;;;;5058824;28;19925;-64
2023/04/23 01:24:41;;;;;;;;;;;12.40;99.90;;;;;;5076383;28;20364;-64
2023/04/23 01:27:13;;;;;;;;;;;12.30;99.90;;;;;;5058177;28;19931;-64
2023/04/23 01:29:46;;;;;;;;;;;12.30;99.90;;;;;;5078912;28;19947;-64
2023/04/23 01:32:18;;;;;;;;;;;12.20;99.90;;;;;;5026624;28;19929;-64
2023/04/23 01:34:50;;;;;;;;;;;12.20;99.90;;;;;;5062564;28;19928;-64
2023/04/23 01:37:17;;;;;;;;;;;12.20;99.90;;;;;;5063649;28;19929;-64
2023/04/23 01:39:50;;;;;;;;;;;12.20;99.90;;;;;;5060936;28;19928;-64
2023/04/23 01:42:22;;;;;;;;;;;12.20;99.90;;;;;;5065128;28;19924;-64
2023/04/23 01:44:54;;;;;;;;;;;12.20;99.90;;;;;;5058082;28;19970;-64
2023/04/23 01:47:25;;;;;;;;;;;12.20;99.90;;;;;;5056750;28;19925;-64
2023/04/23 01:49:57;;;;;;;;;;;12.20;99.90;;;;;;5056971;28;19935;-64
2023/04/23 01:52:29;;;;;;;;;;;12.20;99.90;;;;;;5064458;28;19925;-64
2023/04/23 01:55:01;;;;;;;;;;;12.10;99.90;;;;;;5078504;28;19928;-64
2023/04/23 01:57:33;;;;;;;;;;;12.20;99.90;;;;;;5049903;28;19932;-64
2023/04/23 02:00:10;;;;;;;;;;;12.10;99.90;;;;;;5065448;28;19924;-64
2023/04/23 02:02:42;;;;;;;;;;;12.10;99.90;;;;;;5060889;28;19954;-64
2023/04/23 02:05:17;;;;;;;;;;;12.10;99.90;;;;;;5078268;28;19932;-64
2023/04/23 02:07:49;;;;;;;;;;;12.00;99.90;;;;;;5059617;28;19928;-64
2023/04/23 02:10:21;;;;;;;;;;;11.90;99.90;;;;;;5059552;28;19939;-64
2023/04/23 02:12:53;;;;;;;;;;;11.90;99.90;;;;;;5087569;28;19924;-64
2023/04/23 02:15:26;;;;;;;;;;;11.90;99.90;;;;;;5077546;28;19928;-64
2023/04/23 02:17:59;;;;;;;;;;;12.00;99.90;;;;;;5057791;28;19929;-64
2023/04/23 02:20:31;;;;;;;;;;;12.00;99.90;;;;;;5071077;28;19935;-64
2023/04/23 02:22:57;;;;;;;;;;;11.90;99.90;;;;;;5068013;28;19967;-64
2023/04/23 02:25:30;;;;;;;;;;;11.80;99.90;;;;;;5061553;28;19954;-64
2023/04/23 02:28:05;;;;;;;;;;;11.80;99.90;;;;;;5061246;28;19983;-65
2023/04/23 02:30:44;;;;;;;;;;;11.80;99.90;;;;;;5046015;28;19929;-64
2023/04/23 02:33:16;;;;;;;;;;;11.80;99.90;;;;;;5060281;28;19928;-64
2023/04/23 02:35:48;;;;;;;;;;;11.90;99.90;;;;;;5058994;28;19931;-65
2023/04/23 02:38:19;;;;;;;;;;;11.80;99.90;;;;;;5063676;28;19936;-64
2023/04/23 02:40:51;;;;;;;;;;;11.80;99.90;;;;;;5088960;28;19982;-64
2023/04/23 02:43:23;;;;;;;;;;;11.80;99.90;;;;;;5068700;28;19924;-65
2023/04/23 02:45:55;;;;;;;;;;;11.80;99.90;;;;;;5064374;28;19928;-65
2023/04/23 02:48:21;;;;;;;;;;;11.80;99.90;;;;;;5065634;28;19931;-65
2023/04/23 02:50:53;;;;;;;;;;;11.80;99.90;;;;;;5048884;28;20404;-65
2023/04/23 02:53:25;;;;;;;;;;;11.90;99.90;;;;;;5062355;28;20017;-65
2023/04/23 02:55:56;;;;;;;;;;;11.90;99.90;;;;;;5053066;28;19929;-65
2023/04/23 02:58:30;;;;;;;;;;;11.90;99.90;;;;;;5060978;28;19931;-65
2023/04/23 03:00:59;;;;;;;;;;;11.90;99.90;;;;;;5065736;28;19925;-65
2023/04/23 03:03:31;;;;;;;;;;;11.90;99.90;;;;;;5040552;28;19932;-65
2023/04/23 03:06:05;;;;;;;;;;;11.90;99.90;;;;;;5069030;28;19932;-65
2023/04/23 03:08:37;;;;;;;;;;;11.80;99.90;;;;;;5087766;28;19928;-65
2023/04/23 03:11:09;;;;;;;;;;;11.70;99.90;;;;;;5072431;28;19924;-65
2023/04/23 03:13:35;;;;;;;;;;;11.70;99.90;;;;;;5065938;28;19935;-65
2023/04/23 03:16:07;;;;;;;;;;;11.60;99.90;;;;;;5061179;28;20355;-65
2023/04/23 03:18:34;;;;;;;;;;;11.50;99.90;;;;;;5057133;28;20396;-65
2023/04/23 03:21:06;;;;;;;;;;;11.50;99.90;;;;;;5057986;28;20404;-65
2023/04/23 03:23:38;;;;;;;;;;;11.40;99.90;;;;;;5079898;28;19924;-65
2023/04/23 03:26:10;;;;;;;;;;;11.40;99.90;;;;;;5069116;28;19985;-65
2023/04/23 03:28:42;;;;;;;;;;;11.40;99.90;;;;;;5069640;28;19951;-65
2023/04/23 03:31:14;;;;;;;;;;;11.40;99.90;;;;;;5068860;28;19925;-65
2023/04/23 03:33:46;;;;;;;;;;;11.40;99.90;;;;;;5065309;28;19924;-65
2023/04/23 03:36:24;;;;;;;;;;;11.40;99.90;;;;;;5063616;28;19924;-65
2023/04/23 03:38:51;;;;;;;;;;;11.30;99.90;;;;;;5060441;28;19930;-65
2023/04/23 03:41:24;;;;;;;;;;;11.30;99.90;;;;;;5061060;28;19964;-65
2023/04/23 03:43:56;;;;;;;;;;;11.20;99.90;;;;;;5050295;28;19935;-65
2023/04/23 03:46:38;;;;;;;;;;;11.20;99.90;;;;;;5068454;28;20028;-65
2023/04/23 03:49:10;;;;;;;;;;;11.20;99.90;;;;;;5070715;28;19924;-65
2023/04/23 03:51:43;;;;;;;;;;;11.20;99.90;;;;;;5069183;28;20015;-65
2023/04/23 03:54:17;;;;;;;;;;;11.10;99.90;;;;;;5071363;28;20308;-65
2023/04/23 03:57:00;;;;;;;;;;;11.10;99.90;;;;;;5068802;28;19947;-65
2023/04/23 03:59:36;;;;;;;;;;;11.10;99.90;;;;;;5063280;28;19974;-65
2023/04/23 04:02:08;;;;;;;;;;;11.00;99.90;;;;;;5060163;28;19928;-65
2023/04/23 04:04:41;;;;;;;;;;;11.00;99.90;;;;;;5057075;28;19971;-65
2023/04/23 04:07:15;;;;;;;;;;;11.00;99.90;;;;;;5056272;28;20590;-65
2023/04/23 04:09:48;;;;;;;;;;;11.00;99.90;;;;;;5090716;28;19977;-65
2023/04/23 04:12:24;;;;;;;;;;;11.00;99.90;;;;;;5056527;28;19959;-64
2023/04/23 04:14:55;;;;;;;;;;;10.90;99.90;;;;;;5065646;28;19932;-65
2023/04/23 04:17:27;;;;;;;;;;;10.90;99.90;;;;;;5081102;28;20305;-65
2023/04/23 04:19:58;;;;;;;;;;;10.90;99.90;;;;;;5081675;28;20346;-65
2023/04/23 04:22:30;;;;;;;;;;;10.90;99.90;;;;;;5044560;28;19924;-65
2023/04/23 04:24:57;;;;;;;;;;;10.90;99.90;;;;;;5075957;28;19924;-65
2023/04/23 04:27:32;;;;;;;;;;;10.80;99.90;;;;;;5070860;28;19970;-65
2023/04/23 04:30:04;;;;;;;;;;;10.80;99.90;;;;;;5059268;28;19978;-65
2023/04/23 04:32:37;;;;;;;;;;;10.90;99.90;;;;;;5071694;28;19935;-65
2023/04/23 04:35:09;;;;;;;;;;;10.80;99.90;;;;;;5087333;28;19935;-65
2023/04/23 04:37:42;;;;;;;;;;;10.80;99.90;;;;;;5085120;28;19925;-65
2023/04/23 04:40:14;;;;;;;;;;;10.80;99.90;;;;;;5063680;28;19932;-65
2023/04/23 04:42:46;;;;;;;;;;;10.80;99.90;;;;;;5080496;28;19928;-65
2023/04/23 04:45:18;;;;;;;;;;;10.70;99.90;;;;;;5078175;28;20277;-65
2023/04/23 04:47:51;;;;;;;;;;;10.70;99.90;;;;;;5058681;28;19924;-65
2023/04/23 04:50:23;;;;;;;;;;;10.70;99.90;;;;;;5076405;28;19952;-65
2023/04/23 04:52:55;;;;;;;;;;;10.70;99.90;;;;;;5083914;28;19949;-65
2023/04/23 04:55:21;;;;;;;;;;;10.70;99.90;;;;;;5066648;28;19928;-65
2023/04/23 04:57:54;;;;;;;;;;;10.70;99.90;;;;;;5062456;28;19936;-65
2023/04/23 05:00:28;;;;;;;;;;;10.70;99.90;;;;;;5082265;28;19947;-65
2023/04/23 05:02:56;;;;;;;;;;;10.70;99.90;;;;;;5053668;28;20304;-65
2023/04/23 05:05:28;;;;;;;;;;;10.70;99.90;;;;;;5086676;28;19978;-65
2023/04/23 05:07:57;;;;;;;;;;;10.70;99.90;;;;;;5068535;28;19924;-65
2023/04/23 05:10:29;;;;;;;;;;;10.70;99.90;;;;;;5089513;28;19924;-65
2023/04/23 05:13:01;;;;;;;;;;;10.60;99.90;;;;;;5081536;28;20395;-65
2023/04/23 05:15:33;;;;;;;;;;;10.60;99.90;;;;;;5066134;28;19974;-65
2023/04/23 05:18:05;;;;;;;;;;;10.70;99.90;;;;;;5064900;28;19924;-65
2023/04/23 05:20:37;;;;;;;;;;;10.70;99.90;;;;;;5066040;28;19932;-65
2023/04/23 05:23:08;;;;;;;;;;;10.70;99.90;;;;;;5066060;28;19932;-65
2023/04/23 05:25:40;;;;;;;;;;;10.70;99.90;;;;;;5065557;28;20315;-65
2023/04/23 05:28:12;;;;;;;;;;;10.60;99.90;;;;;;5071399;28;19924;-65
2023/04/23 05:30:44;;;;;;;;;;;10.60;99.90;;;;;;5070496;28;19928;-65
2023/04/23 05:33:16;;;;;;;;;;;10.70;99.90;;;;;;5086206;28;20344;-65
2023/04/23 05:35:48;;;;;;;;;;;10.70;99.90;;;;;;5089280;28;19974;-65
2023/04/23 05:38:20;;;;;;;;;;;10.70;99.90;;;;;;5062376;28;19924;-65
2023/04/23 05:40:51;;;;;;;;;;;10.70;99.90;;;;;;5048207;28;19924;-65
2023/04/23 05:43:18;;;;;;;;;;;10.70;99.90;;;;;;5064925;28;19928;-65
2023/04/23 05:45:50;;;;;;;;;;;10.60;99.90;;;;;;5083854;28;19930;-65
2023/04/23 05:48:22;;;;;;;;;;;10.70;99.90;;;;;;5066278;28;20391;-65
2023/04/23 05:50:53;;;;;;;;;;;10.70;99.90;;;;;;5086074;28;19977;-65
2023/04/23 05:53:26;;;;;;;;;;;10.70;99.90;;;;;;5085375;28;19924;-65
2023/04/23 05:55:58;;;;;;;;;;;10.70;99.90;;;;;;5068086;28;20340;-65
2023/04/23 05:58:30;;;;;;;;;;;10.80;99.90;;;;;;5080336;28;19932;-65
2023/04/23 06:01:02;;;;;;;;;;;10.80;99.90;;;;;;5078576;28;20400;-65
2023/04/23 06:03:29;;;;;;;;;;;10.90;99.90;;;;;;5079308;28;20327;-65
2023/04/23 06:06:01;;;;;;;;;;;10.90;99.90;;;;;;5080009;28;19931;-65
2023/04/23 06:08:33;;;;;;;;;;;11.00;99.90;;;;;;5064952;28;19925;-65
2023/04/23 06:11:05;;;;;;;;;;;11.00;99.90;;;;;;5083619;28;19935;-65
2023/04/23 06:13:39;;;;;;;;;;;11.00;99.90;;;;;;5066872;28;19946;-65
2023/04/23 06:16:06;;;;;;;;;;;11.00;99.90;;;;;;5080482;28;19924;-66
2023/04/23 06:18:33;;;;;;;;;;;11.00;99.90;;;;;;5086851;28;19931;-65
2023/04/23 06:21:05;;;;;;;;;;;11.10;99.90;;;;;;5084908;28;19928;-66
2023/04/23 06:23:37;;;;;;;;;;;11.10;99.90;;;;;;5060932;28;19924;-65
2023/04/23 06:26:09;;;;;;;;;;;11.10;99.90;;;;;;5079960;28;19924;-65
2023/04/23 06:28:45;;;;;;;;;;;11.00;99.90;;;;;;5062883;28;19928;-66
2023/04/23 06:31:32;;;;;;;;;;;11.10;99.90;;;;;;5060710;28;20458;-65
2023/04/23 06:34:04;;;;;;;;;;;11.00;99.90;;;;;;5083171;28;19931;-65
2023/04/23 06:36:36;;;;;;;;;;;11.10;99.90;;;;;;5083927;28;19981;-65
2023/04/23 06:39:08;;;;;;;;;;;11.10;99.90;;;;;;5080787;28;19950;-65
2023/04/23 06:41:39;;;;;;;;;;;11.10;99.90;;;;;;5068974;28;19924;-65
2023/04/23 06:44:18;;;;;;;;;;;11.20;99.90;;;;;;5062393;28;20422;-65
2023/04/23 06:46:52;;;;;;;;;;;11.20;99.90;;;;;;5080590;28;19929;-65
2023/04/23 06:49:25;;;;;;;;;;;11.20;99.90;;;;;;5058101;28;19925;-65
2023/04/23 06:51:56;;;;;;;;;;;11.20;99.90;;;;;;5065048;28;19931;-66
2023/04/23 06:54:23;;;;;;;;;;;11.20;99.90;;;;;;5083962;28;19935;-65
2023/04/23 06:56:50;;;;;;;;;;;11.20;99.90;;;;;;5068072;28;20416;-65
2023/04/23 06:59:21;;;;;;;;;;;11.20;99.90;;;;;;5066817;28;19978;-65
2023/04/23 07:01:55;;;;;;;;;;;11.30;99.90;;;;;;5059768;28;19928;-65
2023/04/23 07:04:27;;;;;;;;;;;11.30;99.90;;;;;;5086727;28;20429;-65
2023/04/23 07:06:59;;;;;;;;;;;11.30;99.90;;;;;;5083886;28;19981;-65
2023/04/23 07:09:30;;;;;;;;;;;11.40;99.90;;;;;;5077661;28;19928;-65
2023/04/23 07:12:02;;;;;;;;;;;11.50;99.90;;;;;;5058391;28;19928;-65
2023/04/23 07:14:34;;;;;;;;;;;11.60;99.90;;;;;;5081793;28;19925;-65
2023/04/23 07:17:06;;;;;;;;;;;11.70;99.90;;;;;;5081581;28;19924;-65
2023/04/23 07:19:37;;;;;;;;;;;11.80;99.90;;;;;;5084759;28;19970;-65
2023/04/23 07:22:09;;;;;;;;;;;11.80;99.90;;;;;;5049640;28;20380;-65
2023/04/23 07:24:36;;;;;;;;;;;11.90;99.90;;;;;;5065969;28;20392;-65
2023/04/23 07:27:07;;;;;;;;;;;11.90;99.90;;;;;;5087154;28;19997;-65
2023/04/23 07:29:39;;;;;;;;;;;11.90;99.90;;;;;;5068703;28;19981;-65
2023/04/23 07:32:11;;;;;;;;;;;12.00;99.90;;;;;;5082479;28;19924;-65
2023/04/23 07:34:38;;;;;;;;;;;12.00;99.90;;;;;;5078094;28;20436;-65
2023/04/23 07:37:05;;;;;;;;;;;12.10;99.90;;;;;;5081678;28;20458;-65
2023/04/23 07:39:36;;;;;;;;;;;12.10;99.90;;;;;;5065502;28;19978;-65
2023/04/23 07:42:08;;;;;;;;;;;12.10;99.90;;;;;;5084101;28;19978;-64
2023/04/23 07:44:40;;;;;;;;;;;12.10;99.90;;;;;;5081910;28;19924;-65
2023/04/23 07:47:12;;;;;;;;;;;12.20;99.90;;;;;;5067026;28;20372;-65
2023/04/23 07:49:39;;;;;;;;;;;12.20;99.90;;;;;;5084872;28;19935;-64
2023/04/23 07:52:10;;;;;;;;;;;12.20;99.90;;;;;;5081324;28;19940;-64
2023/04/23 07:54:43;;;;;;;;;;;12.30;99.90;;;;;;5063799;28;19932;-64
2023/04/23 07:57:15;;;;;;;;;;;12.40;99.90;;;;;;5045425;28;19981;-64
2023/04/23 07:59:46;;;;;;;;;;;12.40;99.90;;;;;;5084126;28;19933;-64
2023/04/23 08:02:22;;;;;;;;;;;12.50;99.90;;;;;;5068343;28;19929;-67
2023/04/23 08:04:49;;;;;;;;;;;12.60;99.90;;;;;;5067359;28;19924;-64
2023/04/23 08:07:21;;;;;;;;;;;12.60;99.90;;;;;;5049390;28;19925;-64
2023/04/23 08:09:52;;;;;;;;;;;12.60;99.90;;;;;;5065725;28;20019;-65
2023/04/23 08:12:24;;;;;;;;;;;12.70;99.90;;;;;;5063515;28;19928;-65
2023/04/23 08:14:51;;;;;;;;;;;12.70;99.90;;;;;;5083418;28;20400;-64
2023/04/23 08:17:29;;;;;;;;;;;12.70;99.90;;;;;;5055513;28;19925;-64
2023/04/23 08:20:02;;;;;;;;;;;12.80;99.90;;;;;;5080077;28;19959;-64
2023/04/23 08:22:34;;;;;;;;;;;12.90;99.90;;;;;;5080491;28;19924;-64
2023/04/23 08:25:06;;;;;;;;;;;13.00;99.90;;;;;;5068110;28;19924;-67
2023/04/23 08:27:33;;;;;;;;;;;13.00;99.90;;;;;;5084942;28;19928;-65
2023/04/23 08:30:05;;;;;;;;;;;13.10;99.90;;;;;;5064573;28;20822;-64
2023/04/23 08:32:32;;;;;;;;;;;13.20;99.90;;;;;;5084934;28;19928;-65
2023/04/23 08:35:03;;;;;;;;;;;13.30;99.90;;;;;;5083859;28;19978;-64
2023/04/23 08:37:35;;;;;;;;;;;13.20;99.90;;;;;;5079439;28;19993;-64
2023/04/23 08:40:07;;;;;;;;;;;13.30;99.90;;;;;;5042475;28;19932;-64
2023/04/23 08:42:47;;;;;;;;;;;13.40;99.90;;;;;;5060420;28;19928;-64
2023/04/23 08:45:20;;;;;;;;;;;13.40;99.90;;;;;;5083513;28;20277;-64
2023/04/23 08:47:52;;;;;;;;;;;13.40;99.90;;;;;;5064247;28;19932;-64
2023/04/23 08:50:24;;;;;;;;;;;13.30;99.90;;;;;;5062832;28;19924;-64
2023/04/23 08:52:56;;;;;;;;;;;13.30;99.90;;;;;;5084211;28;19983;-64
2023/04/23 08:55:28;;;;;;;;;;;13.40;99.90;;;;;;5065719;28;19932;-64
2023/04/23 08:58:01;;;;;;;;;;;13.60;99.90;;;;;;5083997;28;20574;-64
2023/04/23 09:00:33;;;;;;;;;;;13.70;99.90;;;;;;5080776;28;20359;-64
2023/04/23 09:03:00;;;;;;;;;;;13.70;99.90;;;;;;5065225;28;20495;-64
2023/04/23 09:05:32;;;;;;;;;;;13.80;99.90;;;;;;5070756;28;19931;-64
2023/04/23 09:08:04;;;;;;;;;;;13.80;99.90;;;;;;5079718;28;19924;-64
2023/04/23 09:10:38;;;;;;;;;;;13.80;99.90;;;;;;5060062;28;20400;-64
2023/04/23 09:13:11;;;;;;;;;;;13.90;99.90;;;;;;5078647;28;19924;-64
2023/04/23 09:15:43;;;;;;;;;;;13.90;99.90;;;;;;5080535;28;19928;-65
2023/04/23 09:18:15;;;;;;;;;;;13.80;99.90;;;;;;5084545;28;20370;-64
2023/04/23 09:20:48;;;;;;;;;;;13.80;99.90;;;;;;5067448;28;20344;-65
2023/04/23 09:23:20;;;;;;;;;;;13.70;99.90;;;;;;5065461;28;19924;-64
2023/04/23 09:25:52;;;;;;;;;;;13.70;99.90;;;;;;5066844;28;19951;-64
2023/04/23 09:28:36;;;;;;;;;;;13.70;99.90;;;;;;5084948;28;19982;-64
2023/04/23 09:31:07;;;;;;;;;;;13.80;99.90;;;;;;5080822;28;19989;-64
2023/04/23 09:33:39;;;;;;;;;;;13.90;99.90;;;;;;5065389;28;19924;-64
2023/04/23 09:36:11;;;;;;;;;;;14.00;99.90;;;;;;5061136;28;19935;-64
2023/04/23 09:38:42;;;;;;;;;;;14.10;99.90;;;;;;5084664;28;19981;-64
2023/04/23 09:41:21;;;;;;;;;;;14.10;99.90;;;;;;5085525;28;19993;-65
2023/04/23 09:43:56;;;;;;;;;;;14.20;99.90;;;;;;5064403;28;20601;-65
2023/04/23 09:46:34;;;;;;;;;;;14.30;99.90;;;;;;5063969;28;19928;-64
2023/04/23 09:49:09;;;;;;;;;;;14.50;99.90;;;;;;5077870;28;19939;-64
2023/04/23 09:51:42;;;;;;;;;;;14.50;99.90;;;;;;5075171;28;19924;-64
2023/04/23 09:54:18;;;;;;;;;;;14.50;99.90;;;;;;5073338;28;19928;-65
2023/04/23 09:56:52;;;;;;;;;;;14.80;99.90;;;;;;5060213;28;19977;-66
2023/04/23 09:59:25;;;;;;;;;;;15.00;99.90;;;;;;5079127;28;20404;-65
2023/04/23 10:01:52;;;;;;;;;;;15.20;99.90;;;;;;5084295;28;19924;-65
2023/04/23 10:04:24;;;;;;;;;;;15.40;99.90;;;;;;5079845;28;19928;-64
2023/04/23 10:06:57;;;;;;;;;;;15.60;99.90;;;;;;5070732;28;20307;-66
2023/04/23 10:09:25;;;;;;;;;;;15.60;99.90;;;;;;5061520;28;19932;-65
2023/04/23 10:11:58;;;;;;;;;;;15.70;99.90;;;;;;5067614;28;20311;-64
2023/04/23 10:14:25;;;;;;;;;;;15.60;99.90;;;;;;5076459;28;20424;-64
2023/04/23 10:17:02;;;;;;;;;;;15.60;99.90;;;;;;5062864;28;19924;-64
2023/04/23 10:19:36;;;;;;;;;;;15.70;99.90;;;;;;5077656;28;19924;-65
2023/04/23 10:22:10;;;;;;;;;;;15.80;99.90;;;;;;5066145;28;19935;-64
2023/04/23 10:24:42;;;;;;;;;;;15.90;99.90;;;;;;5067425;28;19930;-65
2023/04/23 10:27:15;;;;;;;;;;;15.80;99.90;;;;;;5065056;28;19958;-64
2023/04/23 10:29:42;;;;;;;;;;;15.80;99.90;;;;;;5066141;28;19931;-64
2023/04/23 10:32:14;;;;;;;;;;;15.80;99.90;;;;;;5084026;28;19928;-65
2023/04/23 10:34:46;;;;;;;;;;;15.80;99.90;;;;;;5062348;28;19939;-65
2023/04/23 10:37:19;;;;;;;;;;;15.90;99.90;;;;;;5078636;28;19982;-64
2023/04/23 10:39:54;;;;;;;;;;;15.80;99.90;;;;;;5078251;28;19924;-64
2023/04/23 10:42:21;;;;;;;;;;;15.90;99.90;;;;;;5075588;28;19924;-64
2023/04/23 10:44:55;;;;;;;;;;;16.00;99.90;;;;;;5080837;28;19928;-64
2023/04/23 10:47:21;;;;;;;;;;;16.20;99.90;;;;;;5083726;28;19924;-65
2023/04/23 10:49:53;;;;;;;;;;;16.20;99.90;;;;;;5068864;28;20392;-65
2023/04/23 10:52:25;;;;;;;;;;;16.40;99.90;;;;;;5084445;28;19928;-64
2023/04/23 10:54:58;;;;;;;;;;;16.50;99.90;;;;;;5083036;28;20427;-64
2023/04/23 10:57:30;;;;;;;;;;;16.40;99.90;;;;;;5066095;28;19928;-64
2023/04/23 10:59:57;;;;;;;;;;;16.40;99.90;;;;;;5069932;28;20556;-64
2023/04/23 11:02:41;;;;;;;;;;;16.40;99.90;;;;;;5080453;28;20011;-64
2023/04/23 11:05:08;;;;;;;;;;;16.40;99.90;;;;;;5066820;28;19928;-64
2023/04/23 11:07:40;;;;;;;;;;;16.40;99.90;;;;;;5082851;28;19932;-64
2023/04/23 11:10:12;;;;;;;;;;;16.50;99.90;;;;;;5074182;28;20293;-64
2023/04/23 11:12:44;;;;;;;;;;;16.50;99.90;;;;;;5066835;28;19931;-64
2023/04/23 11:15:12;;;;;;;;;;;16.50;99.90;;;;;;5084578;28;20416;-64
2023/04/23 11:17:46;;;;;;;;;;;16.50;99.90;;;;;;5087250;28;19928;-64
2023/04/23 11:20:14;;;;;;;;;;;16.70;99.90;;;;;;5083995;28;19967;-64
2023/04/23 11:22:41;;;;;;;;;;;16.80;99.90;;;;;;5077455;28;19924;-65
2023/04/23 11:25:21;;;;;;;;;;;16.80;99.90;;;;;;5056111;28;19935;-64
2023/04/23 11:27:48;;;;;;;;;;;16.80;99.90;;;;;;5059607;28;19928;-65
2023/04/23 11:30:24;;;;;;;;;;;16.90;99.90;;;;;;5057987;28;19924;-64
2023/04/23 11:32:58;;;;;;;;;;;17.00;99.90;;;;;;5082645;28;19932;-64
2023/04/23 11:35:38;;;;;;;;;;;17.00;99.90;;;;;;5083567;28;19927;-65
2023/04/23 11:38:10;;;;;;;;;;;16.90;99.90;;;;;;5066003;28;19931;-64
2023/04/23 11:40:45;;;;;;;;;;;16.90;99.90;;;;;;5079079;28;19936;-65
2023/04/23 11:43:17;;;;;;;;;;;16.90;99.90;;;;;;5077901;28;19935;-64
2023/04/23 11:45:44;;;;;;;;;;;16.90;99.90;;;;;;5069586;28;20003;-64
2023/04/23 11:48:16;;;;;;;;;;;16.80;99.90;;;;;;5072674;28;19925;-64
2023/04/23 11:50:48;;;;;;;;;;;16.90;99.90;;;;;;5071853;28;19925;-65
2023/04/23 11:53:15;;;;;;;;;;;17.00;99.90;;;;;;5063923;28;19928;-65
2023/04/23 11:55:47;;;;;;;;;;;17.10;99.90;;;;;;5083089;28;19928;-65
2023/04/23 11:58:19;;;;;;;;;;;17.10;99.90;;;;;;5082991;28;19975;-64
2023/04/23 12:00:56;;;;;;;;;;;17.20;99.90;;;;;;5080687;28;19928;-64
2023/04/23 12:03:28;;;;;;;;;;;17.20;99.90;;;;;;5084154;28;19928;-64
2023/04/23 12:06:00;;;;;;;;;;;17.30;99.90;;;;;;5050997;28;19924;-64
2023/04/23 12:08:36;;;;;;;;;;;17.30;99.90;;;;;;5071979;28;19928;-65
2023/04/23 12:11:10;;;;;;;;;;;17.30;99.90;;;;;;5070621;28;20293;-64
2023/04/23 12:13:44;;;;;;;;;;;17.40;99.90;;;;;;5075883;28;19932;-65
2023/04/23 12:16:15;;;;;;;;;;;17.60;99.90;;;;;;5076978;28;19929;-65
2023/04/23 12:18:52;;;;;;;;;;;17.70;99.90;;;;;;5069714;28;19935;-64
2023/04/23 12:21:24;;;;;;;;;;;17.90;99.90;;;;;;5081420;28;20408;-65
2023/04/23 12:23:59;;;;;;;;;;;17.90;99.90;;;;;;5081621;28;20289;-65
2023/04/23 12:26:31;;;;;;;;;;;17.80;99.90;;;;;;5064093;28;19928;-64
2023/04/23 12:29:02;;;;;;;;;;;18.00;99.90;;;;;;5078455;28;19925;-65
2023/04/23 12:31:36;;;;;;;;;;;18.20;99.90;;;;;;5087014;28;20400;-65
2023/04/23 12:34:08;;;;;;;;;;;18.30;99.90;;;;;;5071183;28;19987;-65
2023/04/23 12:36:42;;;;;;;;;;;18.20;99.90;;;;;;5061038;28;19932;-64
2023/04/23 12:39:30;;;;;;;;;;;18.10;99.90;;;;;;5085448;28;19953;-65
2023/04/23 12:42:03;;;;;;;;;;;18.10;99.90;;;;;;5060395;28;20389;-64
2023/04/23 12:44:36;;;;;;;;;;;18.00;99.90;;;;;;5066810;28;19998;-64
2023/04/23 12:47:09;;;;;;;;;;;17.80;99.90;;;;;;5064771;28;19932;-65
2023/04/23 12:49:42;;;;;;;;;;;17.70;99.90;;;;;;5059886;28;19925;-65
2023/04/23 12:52:14;;;;;;;;;;;17.70;99.90;;;;;;5076136;28;19974;-64
2023/04/23 12:54:50;;;;;;;;;;;17.80;99.90;;;;;;5072775;28;19924;-64
2023/04/23 12:57:23;;;;;;;;;;;18.00;99.90;;;;;;5066741;28;19928;-65
2023/04/23 12:59:55;;;;;;;;;;;18.30;99.90;;;;;;5079807;28;19953;-65
2023/04/23 13:02:27;;;;;;;;;;;18.50;99.90;;;;;;5056884;28;20007;-65
2023/04/23 13:04:59;;;;;;;;;;;18.80;99.90;;;;;;5080470;28;19977;-64
2023/04/23 13:07:30;;;;;;;;;;;18.90;99.90;;;;;;5081707;28;19928;-64
2023/04/23 13:10:02;;;;;;;;;;;19.00;99.90;;;;;;5063959;28;19932;-65
2023/04/23 13:12:34;;;;;;;;;;;19.10;99.90;;;;;;5083286;28;19928;-64
2023/04/23 13:15:07;;;;;;;;;;;19.20;99.90;;;;;;5076715;28;19932;-64
2023/04/23 13:17:39;;;;;;;;;;;19.20;99.90;;;;;;5088017;28;19924;-64
2023/04/23 13:20:10;;;;;;;;;;;19.20;99.90;;;;;;5083482;28;19978;-65
2023/04/23 13:22:42;;;;;;;;;;;19.00;99.90;;;;;;5061020;28;19932;-64
2023/04/23 13:25:13;;;;;;;;;;;18.80;99.90;;;;;;5080995;28;20389;-65
2023/04/23 13:27:45;;;;;;;;;;;18.70;99.90;;;;;;5078075;28;20358;-65
2023/04/23 13:30:17;;;;;;;;;;;18.70;99.90;;;;;;5080694;28;19934;-65
2023/04/23 13:32:48;;;;;;;;;;;18.60;99.90;;;;;;5083965;28;19924;-65
2023/04/23 13:35:20;;;;;;;;;;;18.50;99.90;;;;;;5078978;28;19932;-65
2023/04/23 13:37:52;;;;;;;;;;;18.50;99.90;;;;;;5064272;28;20451;-65
2023/04/23 13:40:23;;;;;;;;;;;18.40;99.90;;;;;;5060818;28;19928;-65
2023/04/23 13:42:55;;;;;;;;;;;18.30;99.90;;;;;;5079175;28;19924;-64
2023/04/23 13:45:22;;;;;;;;;;;18.30;99.90;;;;;;5079825;28;19959;-65
2023/04/23 13:47:54;;;;;;;;;;;18.30;99.90;;;;;;5077022;28;19924;-64
2023/04/23 13:50:26;;;;;;;;;;;18.30;99.90;;;;;;5061918;28;19928;-64
2023/04/23 13:52:58;;;;;;;;;;;18.30;99.90;;;;;;5083294;28;19939;-64
2023/04/23 13:55:24;;;;;;;;;;;18.40;99.90;;;;;;5083391;28;19928;-64
2023/04/23 13:57:57;;;;;;;;;;;18.40;99.90;;;;;;5083531;28;19924;-65
2023/04/23 14:00:30;;;;;;;;;;;18.60;99.90;;;;;;5077093;28;20295;-64
2023/04/23 14:03:02;;;;;;;;;;;18.90;99.90;;;;;;5084167;28;19924;-65
2023/04/23 14:05:35;;;;;;;;;;;19.10;99.90;;;;;;5077994;28;19932;-65
2023/04/23 14:08:06;;;;;;;;;;;19.40;99.90;;;;;;5056455;28;19932;-65
2023/04/23 14:10:38;;;;;;;;;;;19.70;99.90;;;;;;5060882;28;20304;-65
2023/04/23 14:13:10;;;;;;;;;;;19.90;99.90;;;;;;5063496;28;20050;-65
2023/04/23 14:15:42;;;;;;;;;;;19.80;99.90;;;;;;5080239;28;19938;-65
2023/04/23 14:18:13;;;;;;;;;;;19.60;99.90;;;;;;5077784;28;19924;-65
2023/04/23 14:20:45;;;;;;;;;;;19.50;99.90;;;;;;5060106;28;19929;-65
2023/04/23 14:23:24;;;;;;;;;;;19.30;99.90;;;;;;5078803;28;19932;-65
2023/04/23 14:25:52;;;;;;;;;;;19.30;99.90;;;;;;5061313;28;19931;-65
2023/04/23 14:28:26;;;;;;;;;;;19.20;99.90;;;;;;5058059;28;19932;-64
2023/04/23 14:30:59;;;;;;;;;;;19.20;99.90;;;;;;5076338;28;19952;-65
2023/04/23 14:33:31;;;;;;;;;;;19.10;99.90;;;;;;5059349;28;19928;-64
2023/04/23 14:36:03;;;;;;;;;;;19.30;99.90;;;;;;5080987;28;19987;-65
2023/04/23 14:38:35;;;;;;;;;;;19.30;99.90;;;;;;5067073;28;19936;-65
2023/04/23 14:41:07;;;;;;;;;;;19.40;99.90;;;;;;5082584;28;19928;-65
2023/04/23 14:43:38;;;;;;;;;;;19.60;99.90;;;;;;5084952;28;20320;-65